Ashford, WA

2:14 AM PDT on August 22, 2014 (GMT -0700)
HADS NISQUALLY RIVER NEAR NATIONAL NE WA US USGS | Change Station
CLOSE
Current Station
Personal Weather Station
Location: Elbe, WA
Elevation: 1450 ft
Nearby Weather Stations

Elev 1450 ft 46.75 °N, 122.08 °W | Updated 1 hour ago

Clear
Clear
50 °F
Feels Like 50 °F
N
Wind Variable Wind from North
Gusts 0.0 mph

Today
High -- | Low -- °F
--% Chance of Precip.
Yesterday
High -- | Low -- °F
Precip. -- in
6:15 AM 8:06 PM
Waning Crescent, 9% visible
Pressure 30.01 in
Visibility 10.0 miles
Clouds Clear
Dew Point Not available.
Humidity Not available.
Rainfall 0.00 in
Snow Depth Not available.
UV 0 out of 12
Pollen 3.10 out of 12
Air Quality Not available.
Flu Activity Not available.
METAR KGRF 220858Z AUTO 14004KT 10SM CLR 12/10 A3000 RMK AO2 SLP162 T01170104 53002 PWINO $

More Conditions Fewer Conditions

Pressure 30.01 in
Visibility 10.0 miles
Clouds Clear
Dew Point Not available.
Humidity Not available.
Rainfall 0.00 in
Snow Depth Not available.
UV 0 out of 12
Pollen 3.10 out of 12
Air Quality Not available.
Flu Activity Not available.
METAR KGRF 220858Z AUTO 14004KT 10SM CLR 12/10 A3000 RMK AO2 SLP162 T01170104 53002 PWINO $

More Conditions Fewer Conditions

10-Day Weather Forecast

Almanac

Astronomy

Aug. 22, 2014 Rise Set
Actual Time 6:15 AM PDT 8:06 PM PDT
Civil Twilight 5:42 AM PDT 8:38 PM PDT
Nautical Twilight 5:03 AM PDT 9:17 PM PDT
Astronomical Twilight 4:19 AM PDT 10:01 PM PDT
Moon 3:38 AM PDT 6:20 PM PDT
Length of Visible Light 14h 55m
Length of Day
13h 50m
Tomorrow will be 3m 7s shorter.
Waning Crescent, 9% of the Moon is Illuminated
Today
Waning Crescent
Aug 25
New
Sep 2
First Quarter
Sep 8
Full
Sep 15
Last Quarter

Today's Extremes

State Highs State Lows

Community

WunderPhotos

Upload Photos

1,746,146 photos uploaded!

Nearby

Snow Depth

Station Depth Elevation
Burnt Mountain 0 in 4200 ft
Morse Lake 0 in 5400 ft
Huckleberry Creek 0 in 2000 ft
Pigtail Peak 0 in 5900 ft
Spirit Lake 0 in 3120 ft

Earthquake Activity

City Distance Mag. Time & Date
No recent earthquake activity has been reported nearby.
Minimum magnitude displayed is 2.5.

Coastal Water Temperatures

Place Temperature
No Stations Reporting

Nearby Weather Stations